Time;durP1;ratioP1;P1;durP2;ratioP2;P2;SDS_P1;SDS_P2;PMS_P1;PMS_P2;Temp;Humidity;BMP_temperature;BMP_pressure;BME280_temperature;BME280_humidity;BME280_pressure;Samples;Min_cycle;Max_cycle;Signal;HPM_P1;HPM_P2
2021/12/29 00:01:55;;;;;;;1.50;1.40;;;5.90;99.90;;;;;;5044762;28;20406;-88
2021/12/29 00:04:20;;;;;;;1.10;1.00;;;5.90;99.90;;;;;;5062287;28;20040;-88
2021/12/29 00:06:47;;;;;;;1.33;1.23;;;5.80;99.90;;;;;;5045660;28;20048;-87
2021/12/29 00:09:12;;;;;;;0.65;0.65;;;5.80;99.90;;;;;;5046568;28;20116;-89
2021/12/29 00:11:40;;;;;;;0.80;0.80;;;5.80;99.90;;;;;;5045670;28;20128;-89
2021/12/29 00:14:07;;;;;;;0.95;0.95;;;5.80;99.90;;;;;;5046240;28;20041;-87
2021/12/29 00:16:35;;;;;;;0.90;0.90;;;5.80;99.90;;;;;;5067324;28;20109;-87
2021/12/29 00:19:04;;;;;;;0.77;0.77;;;5.80;99.90;;;;;;5041544;28;20128;-87
2021/12/29 00:21:32;;;;;;;0.80;0.80;;;5.80;99.90;;;;;;5060093;28;20065;-87
2021/12/29 00:23:59;;;;;;;0.82;0.82;;;5.80;99.90;;;;;;5049490;28;20042;-87
2021/12/29 00:26:26;;;;;;;0.70;0.70;;;5.80;99.90;;;;;;5041881;28;20072;-88
2021/12/29 00:28:53;;;;;;;0.90;0.90;;;5.80;99.90;;;;;;5057376;28;20052;-86
2021/12/29 00:31:19;;;;;;;0.80;0.80;;;5.80;99.90;;;;;;5030222;28;20120;-87
2021/12/29 00:33:47;;;;;;;0.90;0.90;;;5.70;99.90;;;;;;5038689;28;20094;-91
2021/12/29 00:36:13;;;;;;;0.70;0.70;;;5.80;99.90;;;;;;5032566;28;20042;-88
2021/12/29 00:38:39;;;;;;;0.70;0.70;;;5.70;99.90;;;;;;5044303;28;20055;-86
2021/12/29 00:41:04;;;;;;;0.80;0.80;;;5.80;99.90;;;;;;5051709;28;20112;-88
2021/12/29 00:43:30;;;;;;;0.77;0.77;;;5.80;99.90;;;;;;5057188;28;20049;-87
2021/12/29 00:45:56;;;;;;;0.90;0.90;;;5.80;99.90;;;;;;5052746;28;20041;-89
2021/12/29 00:48:24;;;;;;;0.70;0.70;;;5.80;99.90;;;;;;5046757;28;20036;-88
2021/12/29 00:50:50;;;;;;;1.77;1.10;;;5.80;99.90;;;;;;5060869;28;20044;-88
2021/12/29 00:53:16;;;;;;;0.70;0.70;;;5.80;99.90;;;;;;5044879;28;20040;-87
2021/12/29 00:55:44;;;;;;;0.93;0.90;;;5.80;99.90;;;;;;5041589;28;20049;-88
2021/12/29 00:58:09;;;;;;;0.60;0.60;;;5.80;99.90;;;;;;5052200;28;20037;-87
2021/12/29 01:00:37;;;;;;;0.90;0.88;;;5.80;99.90;;;;;;5055013;28;20047;-87
2021/12/29 01:03:05;;;;;;;0.73;0.73;;;5.80;99.90;;;;;;5060918;28;20048;-88
2021/12/29 01:05:31;;;;;;;1.05;0.98;;;5.90;99.90;;;;;;5047376;28;20136;-88
2021/12/29 01:07:57;;;;;;;1.00;0.85;;;5.90;99.90;;;;;;5054168;28;20080;-88
2021/12/29 01:10:22;;;;;;;0.90;0.90;;;5.90;99.90;;;;;;5047111;28;20056;-89
2021/12/29 01:12:56;;;;;;;0.60;0.60;;;5.90;99.90;;;;;;5045282;28;20044;-86
2021/12/29 01:15:31;;;;;;;0.90;0.90;;;5.90;99.90;;;;;;5045762;28;20093;-87
2021/12/29 01:17:57;;;;;;;1.75;1.35;;;5.90;99.90;;;;;;5046925;28;20460;-87
2021/12/29 01:20:23;;;;;;;0.70;0.70;;;5.90;99.90;;;;;;5061382;28;20051;-88
2021/12/29 01:22:51;;;;;;;0.60;0.60;;;5.90;99.90;;;;;;5042673;28;20041;-87
2021/12/29 01:25:17;;;;;;;1.15;1.05;;;5.90;99.90;;;;;;5044216;28;20105;-88
2021/12/29 01:27:43;;;;;;;1.45;1.35;;;5.90;99.90;;;;;;5059092;28;20128;-88
2021/12/29 01:30:11;;;;;;;1.40;1.30;;;5.90;99.90;;;;;;5038823;28;20037;-87
2021/12/29 01:32:38;;;;;;;0.90;0.90;;;5.90;99.90;;;;;;5057507;28;20044;-86
2021/12/29 01:35:06;;;;;;;0.60;0.60;;;5.90;99.90;;;;;;5056481;28;20041;-88
2021/12/29 01:37:31;;;;;;;1.63;1.52;;;6.00;99.90;;;;;;5041031;28;20037;-86
2021/12/29 01:39:57;;;;;;;0.60;0.60;;;6.00;99.90;;;;;;5057423;28;20056;-87
2021/12/29 01:42:22;;;;;;;1.02;0.93;;;5.90;99.90;;;;;;5058725;28;20045;-88
2021/12/29 01:44:48;;;;;;;0.85;0.85;;;5.90;99.90;;;;;;5059575;28;20062;-87
2021/12/29 01:47:27;;;;;;;1.70;1.38;;;6.00;99.90;;;;;;5056225;28;20075;-88
2021/12/29 01:49:53;;;;;;;0.70;0.70;;;6.00;99.90;;;;;;5043746;28;20067;-88
2021/12/29 01:52:23;;;;;;;1.90;1.50;;;6.10;99.90;;;;;;5042022;28;20040;-88
2021/12/29 01:54:49;;;;;;;2.60;1.10;;;6.10;99.90;;;;;;5040726;28;20040;-87
2021/12/29 01:57:15;;;;;;;1.40;1.25;;;6.00;99.90;;;;;;5053595;28;20072;-87
2021/12/29 01:59:40;;;;;;;2.75;1.50;;;6.10;99.90;;;;;;5043525;28;20068;-87
2021/12/29 02:02:07;;;;;;;0.80;0.80;;;6.10;99.90;;;;;;5041825;28;20041;-88
2021/12/29 02:04:33;;;;;;;1.58;1.48;;;6.10;99.90;;;;;;5062043;28;20037;-88
2021/12/29 02:06:59;;;;;;;0.80;0.80;;;6.10;99.90;;;;;;5042167;28;20033;-88
2021/12/29 02:09:25;;;;;;;0.60;0.60;;;6.10;99.90;;;;;;5065731;28;20105;-88
2021/12/29 02:11:52;;;;;;;0.95;0.95;;;6.20;99.90;;;;;;5042058;28;20079;-88
2021/12/29 02:14:18;;;;;;;1.25;1.15;;;6.20;99.90;;;;;;5056894;28;20040;-87
2021/12/29 02:16:44;;;;;;;1.33;1.17;;;6.20;99.90;;;;;;5041230;28;20051;-87
2021/12/29 02:19:12;;;;;;;0.90;0.90;;;6.30;99.90;;;;;;5043236;28;20055;-88
2021/12/29 02:21:40;;;;;;;1.42;1.20;;;6.30;99.90;;;;;;5054562;28;20578;-88
2021/12/29 02:26:38;;;;;;;0.85;0.85;;;6.30;99.90;;;;;;5056206;28;20053;-86
2021/12/29 02:29:12;;;;;;;0.75;0.75;;;6.40;99.90;;;;;;5053249;28;20191;-87
2021/12/29 02:31:39;;;;;;;1.35;1.00;;;6.40;99.90;;;;;;5057526;28;20048;-87
2021/12/29 02:34:07;;;;;;;0.98;0.93;;;6.30;99.90;;;;;;5042717;28;20049;-86
2021/12/29 02:36:33;;;;;;;1.15;1.10;;;6.30;99.90;;;;;;5042518;28;20094;-87
2021/12/29 02:38:58;;;;;;;2.00;1.83;;;6.40;99.90;;;;;;5042978;28;20041;-87
2021/12/29 02:41:26;;;;;;;1.00;1.00;;;6.40;99.90;;;;;;5042033;28;20048;-87
2021/12/29 02:44:00;;;;;;;0.77;0.77;;;6.40;99.90;;;;;;5064872;28;20619;-87
2021/12/29 02:46:27;;;;;;;2.33;2.20;;;6.50;99.90;;;;;;5058925;28;20045;-88
2021/12/29 02:48:59;;;;;;;0.90;0.90;;;6.40;99.90;;;;;;5053229;28;20037;-87
2021/12/29 02:51:25;;;;;;;0.90;0.90;;;6.40;99.90;;;;;;5049995;28;20084;-87
2021/12/29 02:53:51;;;;;;;1.10;1.10;;;6.40;99.90;;;;;;5055126;28;20034;-87
2021/12/29 02:56:17;;;;;;;1.20;1.10;;;6.40;99.90;;;;;;5056680;28;20068;-87
2021/12/29 02:58:43;;;;;;;0.80;0.80;;;6.40;99.90;;;;;;5056766;28;20044;-87
2021/12/29 03:01:12;;;;;;;0.77;0.77;;;6.50;99.90;;;;;;5040807;28;20685;-88
2021/12/29 03:03:38;;;;;;;0.88;0.88;;;6.50;99.90;;;;;;5033426;28;20045;-88
2021/12/29 03:06:05;;;;;;;0.63;0.63;;;6.50;99.90;;;;;;5038782;28;20050;-87
2021/12/29 03:08:31;;;;;;;1.38;0.73;;;6.40;99.90;;;;;;5042558;28;20125;-88
2021/12/29 03:10:57;;;;;;;0.90;0.90;;;6.50;99.90;;;;;;5053871;28;20130;-88
2021/12/29 03:13:28;;;;;;;0.98;0.90;;;6.50;99.90;;;;;;5061818;28;20033;-87
2021/12/29 03:15:55;;;;;;;1.17;1.08;;;6.50;99.90;;;;;;5041847;28;20048;-88
2021/12/29 03:18:21;;;;;;;1.40;1.17;;;6.50;99.90;;;;;;5061729;28;20040;-87
2021/12/29 03:20:47;;;;;;;0.88;0.88;;;6.50;99.90;;;;;;5045672;28;20359;-88
2021/12/29 03:23:14;;;;;;;0.70;0.70;;;6.50;99.90;;;;;;5057385;28;20056;-88
2021/12/29 03:25:40;;;;;;;1.63;1.30;;;6.40;99.90;;;;;;5065823;28;20091;-87
2021/12/29 03:28:06;;;;;;;3.90;1.23;;;6.40;99.90;;;;;;5046301;28;20045;-87
2021/12/29 03:30:35;;;;;;;0.80;0.80;;;6.40;99.90;;;;;;5072971;28;20049;-86
2021/12/29 03:33:03;;;;;;;1.27;1.17;;;6.50;99.90;;;;;;5035818;28;20046;-87
2021/12/29 03:35:34;;;;;;;5.90;1.02;;;6.50;99.90;;;;;;5045599;28;20041;-87
2021/12/29 03:38:01;;;;;;;0.65;0.65;;;6.40;99.90;;;;;;5062170;28;20473;-88
2021/12/29 03:40:27;;;;;;;0.82;0.82;;;6.50;99.90;;;;;;5045802;28;20221;-88
2021/12/29 03:42:54;;;;;;;2.30;1.52;;;6.50;99.90;;;;;;5045953;28;20068;-88
2021/12/29 03:45:19;;;;;;;0.70;0.70;;;6.50;99.90;;;;;;5057264;28;20045;-88
2021/12/29 03:47:45;;;;;;;0.80;0.80;;;6.50;99.90;;;;;;5040876;28;20056;-89
2021/12/29 03:50:11;;;;;;;1.25;1.15;;;6.50;99.90;;;;;;5067885;28;20037;-88
2021/12/29 03:52:37;;;;;;;1.00;1.00;;;6.50;99.90;;;;;;5059812;28;20076;-87
2021/12/29 03:55:03;;;;;;;1.10;1.10;;;6.50;99.90;;;;;;5062245;28;20041;-87
2021/12/29 03:57:29;;;;;;;1.92;1.75;;;6.50;99.90;;;;;;5045431;28;20037;-87
2021/12/29 03:59:54;;;;;;;0.98;0.98;;;6.50;99.90;;;;;;5045546;28;20094;-88
2021/12/29 04:02:20;;;;;;;2.47;1.25;;;6.60;99.90;;;;;;5046835;28;20052;-86
2021/12/29 04:04:45;;;;;;;0.90;0.90;;;6.50;99.90;;;;;;5047367;28;20056;-88
2021/12/29 04:07:11;;;;;;;2.13;2.03;;;6.60;99.90;;;;;;5062550;28;20033;-89
2021/12/29 04:09:38;;;;;;;1.45;0.90;;;6.70;99.90;;;;;;5062536;28;20033;-89
2021/12/29 04:12:04;;;;;;;0.90;0.90;;;6.70;99.90;;;;;;5045247;28;20048;-88
2021/12/29 04:14:29;;;;;;;1.55;1.20;;;6.60;99.90;;;;;;5062710;28;20033;-89
2021/12/29 04:16:57;;;;;;;1.23;1.13;;;6.70;99.90;;;;;;5043862;28;20045;-88
2021/12/29 04:19:29;;;;;;;0.70;0.70;;;6.70;99.90;;;;;;5043637;28;20033;-88
2021/12/29 04:21:57;;;;;;;38.88;2.25;;;6.70;99.90;;;;;;5056165;28;20048;-89
2021/12/29 04:24:24;;;;;;;1.67;1.02;;;6.70;99.90;;;;;;5066080;28;20017;-89
2021/12/29 04:26:50;;;;;;;1.15;1.05;;;6.70;99.90;;;;;;5088610;28;20041;-88
2021/12/29 04:29:16;;;;;;;0.90;0.90;;;6.70;99.90;;;;;;5074822;28;20181;-89
2021/12/29 04:31:43;;;;;;;1.30;1.20;;;6.60;99.90;;;;;;5073732;28;20052;-88
2021/12/29 04:34:09;;;;;;;0.80;0.80;;;6.70;99.90;;;;;;5057276;28;20025;-89
2021/12/29 04:36:35;;;;;;;0.70;0.70;;;6.70;99.90;;;;;;5056486;28;20039;-88
2021/12/29 04:39:04;;;;;;;0.80;0.80;;;6.70;99.90;;;;;;5051690;28;20045;-89
2021/12/29 04:41:30;;;;;;;0.80;0.80;;;6.70;99.90;;;;;;5037919;28;20120;-88
2021/12/29 04:43:55;;;;;;;1.42;1.05;;;6.70;99.90;;;;;;5036936;28;20062;-89
2021/12/29 04:46:28;;;;;;;1.00;1.00;;;6.70;99.90;;;;;;5027048;28;20056;-87
2021/12/29 04:49:00;;;;;;;0.98;0.98;;;6.70;99.90;;;;;;5043841;28;20063;-88
2021/12/29 04:51:33;;;;;;;1.52;1.35;;;6.70;99.90;;;;;;5041953;28;20036;-88
2021/12/29 04:54:00;;;;;;;1.52;1.17;;;6.80;99.90;;;;;;5042703;28;20116;-87
2021/12/29 04:56:25;;;;;;;0.90;0.90;;;6.80;99.90;;;;;;5045159;28;20071;-87
2021/12/29 04:58:51;;;;;;;0.93;0.90;;;6.80;99.90;;;;;;5057543;28;20037;-88
2021/12/29 05:01:17;;;;;;;1.45;1.05;;;6.80;99.90;;;;;;5041542;28;20036;-87
2021/12/29 05:03:44;;;;;;;0.80;0.80;;;6.80;99.90;;;;;;5044656;28;20051;-87
2021/12/29 05:08:36;;;;;;;1.55;1.45;;;6.80;99.90;;;;;;5069694;28;20132;-88
2021/12/29 05:11:05;;;;;;;1.02;0.93;;;6.80;99.90;;;;;;5058964;28;20064;-87
2021/12/29 05:13:33;;;;;;;1.27;1.17;;;6.80;99.90;;;;;;5048496;28;20148;-88
2021/12/29 05:15:59;;;;;;;4.22;2.25;;;6.80;99.90;;;;;;5040652;28;20127;-87
2021/12/29 05:18:27;;;;;;;1.48;1.30;;;6.80;99.90;;;;;;5042268;28;20052;-88
2021/12/29 05:20:54;;;;;;;1.10;1.00;;;6.80;99.90;;;;;;5050714;28;20046;-88
2021/12/29 05:23:20;;;;;;;0.80;0.80;;;6.80;99.90;;;;;;5040854;28;20132;-88
2021/12/29 05:25:47;;;;;;;1.63;1.20;;;6.90;99.90;;;;;;5047299;28;20180;-87
2021/12/29 05:28:13;;;;;;;5.93;2.40;;;6.90;99.90;;;;;;5048137;28;20045;-85
2021/12/29 05:30:39;;;;;;;1.45;1.35;;;6.90;99.90;;;;;;5040001;28;20084;-87
2021/12/29 05:33:05;;;;;;;2.53;1.77;;;6.90;99.90;;;;;;5053163;28;20049;-87
2021/12/29 05:35:32;;;;;;;1.10;0.90;;;6.90;99.90;;;;;;5049955;28;20088;-87
2021/12/29 05:37:58;;;;;;;0.80;0.80;;;6.90;99.90;;;;;;5042600;28;20041;-87
2021/12/29 05:40:24;;;;;;;0.73;0.73;;;6.90;99.90;;;;;;5034369;28;20044;-87
2021/12/29 05:42:50;;;;;;;1.10;1.08;;;6.80;99.90;;;;;;5053850;28;20100;-88
2021/12/29 05:45:17;;;;;;;0.80;0.80;;;6.90;99.90;;;;;;5044386;28;20108;-88
2021/12/29 05:47:43;;;;;;;3.58;1.27;;;6.90;99.90;;;;;;5054943;28;20041;-88
2021/12/29 05:50:13;;;;;;;2.65;1.50;;;6.90;99.90;;;;;;5035971;28;20045;-88
2021/12/29 05:52:39;;;;;;;0.70;0.70;;;6.80;99.90;;;;;;5059619;28;20393;-89
2021/12/29 05:55:06;;;;;;;1.50;1.40;;;6.80;99.90;;;;;;5041320;28;20124;-88
2021/12/29 05:57:32;;;;;;;4.35;2.13;;;6.80;99.90;;;;;;5042689;28;20051;-88
2021/12/29 05:59:58;;;;;;;1.05;1.05;;;6.90;99.90;;;;;;5054949;28;20124;-89
2021/12/29 06:02:23;;;;;;;1.33;1.23;;;6.80;99.90;;;;;;5041691;28;20039;-89
2021/12/29 06:04:49;;;;;;;0.80;0.80;;;6.90;99.90;;;;;;5037623;28;20068;-88
2021/12/29 06:07:15;;;;;;;0.60;0.60;;;6.90;99.90;;;;;;5058496;28;20365;-89
2021/12/29 06:09:41;;;;;;;0.77;0.77;;;6.90;99.90;;;;;;5043506;28;20145;-86
2021/12/29 06:12:08;;;;;;;2.05;1.95;;;6.90;99.90;;;;;;5052413;28;20052;-87
2021/12/29 06:14:34;;;;;;;1.48;1.38;;;6.90;99.90;;;;;;5058984;28;20116;-87
2021/12/29 06:17:00;;;;;;;0.70;0.70;;;6.90;99.90;;;;;;5048163;28;20071;-86
2021/12/29 06:19:25;;;;;;;0.65;0.65;;;6.80;99.90;;;;;;5053261;28;20179;-86
2021/12/29 06:21:51;;;;;;;1.15;1.10;;;6.80;99.90;;;;;;5059385;28;20041;-86
2021/12/29 06:24:17;;;;;;;0.63;0.63;;;6.80;99.90;;;;;;5040460;28;20045;-87
2021/12/29 06:26:43;;;;;;;1.25;1.15;;;6.90;99.90;;;;;;5046224;28;20041;-88
2021/12/29 06:29:09;;;;;;;0.82;0.82;;;6.90;99.90;;;;;;5045479;28;20073;-87
2021/12/29 06:31:34;;;;;;;1.10;1.00;;;6.80;99.90;;;;;;5042908;28;20136;-87
2021/12/29 06:34:00;;;;;;;0.95;0.95;;;6.90;99.90;;;;;;5078992;28;20449;-87
2021/12/29 06:36:26;;;;;;;1.13;1.05;;;6.90;99.90;;;;;;5048456;28;20081;-88
2021/12/29 06:38:51;;;;;;;1.08;1.08;;;6.90;99.90;;;;;;5049693;28;20131;-88
2021/12/29 06:41:17;;;;;;;1.20;1.10;;;6.90;99.90;;;;;;5060173;28;20033;-87
2021/12/29 06:43:43;;;;;;;1.13;1.05;;;6.90;99.90;;;;;;5038509;28;20044;-87
2021/12/29 06:46:09;;;;;;;2.40;2.10;;;6.90;99.90;;;;;;5035815;28;20029;-88
2021/12/29 06:48:35;;;;;;;2.60;1.17;;;6.90;99.90;;;;;;5042457;28;20086;-88
2021/12/29 06:51:00;;;;;;;1.42;1.33;;;6.90;99.90;;;;;;5034905;28;20201;-88
2021/12/29 06:53:29;;;;;;;0.65;0.65;;;6.90;99.90;;;;;;5043054;28;20060;-86
2021/12/29 06:55:55;;;;;;;0.70;0.70;;;6.80;99.90;;;;;;5042667;28;20327;-88
2021/12/29 06:58:21;;;;;;;0.80;0.80;;;6.80;99.90;;;;;;5043202;28;20140;-88
2021/12/29 07:00:47;;;;;;;1.33;1.23;;;6.90;99.90;;;;;;5047828;28;20430;-87
2021/12/29 07:03:12;;;;;;;0.75;0.75;;;6.90;99.90;;;;;;5059228;28;20041;-88
2021/12/29 07:05:39;;;;;;;0.70;0.70;;;6.90;99.90;;;;;;5033292;28;20069;-87
2021/12/29 07:08:05;;;;;;;1.25;1.15;;;6.90;99.90;;;;;;5042227;28;20033;-87
2021/12/29 07:10:30;;;;;;;0.95;0.93;;;6.90;99.90;;;;;;5041862;28;20076;-87
2021/12/29 07:12:56;;;;;;;0.80;0.80;;;6.90;99.90;;;;;;5038985;28;20041;-88
2021/12/29 07:15:22;;;;;;;0.60;0.60;;;6.90;99.90;;;;;;5042925;28;20183;-88
2021/12/29 07:17:47;;;;;;;0.80;0.80;;;6.90;99.90;;;;;;5042988;28;20045;-86
2021/12/29 07:20:13;;;;;;;1.48;1.38;;;6.90;99.90;;;;;;5050034;28;20033;-87
2021/12/29 07:22:38;;;;;;;0.70;0.70;;;6.90;99.90;;;;;;5041118;28;20033;-87
2021/12/29 07:25:04;;;;;;;1.95;1.63;;;6.90;99.90;;;;;;5059536;28;20685;-89
2021/12/29 07:27:30;;;;;;;4.95;1.55;;;6.90;99.90;;;;;;5053215;28;20049;-88
2021/12/29 07:29:56;;;;;;;0.82;0.82;;;6.90;99.90;;;;;;5044625;28;20065;-88
2021/12/29 07:32:21;;;;;;;2.85;1.50;;;7.00;99.90;;;;;;5047665;28;20041;-88
2021/12/29 07:34:47;;;;;;;1.15;1.10;;;7.00;99.90;;;;;;5042766;28;20482;-87
2021/12/29 07:37:14;;;;;;;1.30;1.15;;;7.00;99.90;;;;;;5060418;28;20056;-86
2021/12/29 07:39:40;;;;;;;1.00;1.00;;;6.90;99.90;;;;;;5059095;28;20056;-87
2021/12/29 07:42:06;;;;;;;2.17;1.30;;;6.90;99.90;;;;;;5042242;28;20037;-86
2021/12/29 07:44:32;;;;;;;2.25;1.50;;;6.90;99.90;;;;;;5060830;28;20044;-87
2021/12/29 07:46:59;;;;;;;0.60;0.60;;;6.90;99.90;;;;;;5043675;28;20124;-88
2021/12/29 07:49:26;;;;;;;0.90;0.90;;;6.90;99.90;;;;;;5040866;28;20033;-88
2021/12/29 07:51:53;;;;;;;0.68;0.68;;;6.90;99.90;;;;;;5059530;28;20083;-87
2021/12/29 07:54:20;;;;;;;1.02;1.02;;;6.90;99.90;;;;;;5043353;28;20120;-88
2021/12/29 07:56:45;;;;;;;0.60;0.60;;;6.90;99.90;;;;;;5047946;28;20037;-89
2021/12/29 07:59:12;;;;;;;6.75;1.83;;;6.90;99.90;;;;;;5052888;28;20051;-89
2021/12/29 08:01:40;;;;;;;0.82;0.80;;;6.90;99.90;;;;;;5042341;28;20112;-88
2021/12/29 08:04:05;;;;;;;0.70;0.70;;;6.90;99.90;;;;;;5064097;28;20045;-87
2021/12/29 08:06:31;;;;;;;1.02;1.02;;;6.90;99.90;;;;;;5044642;28;20194;-88
2021/12/29 08:08:57;;;;;;;0.63;0.63;;;6.90;99.90;;;;;;5044589;28;20040;-87
2021/12/29 08:11:23;;;;;;;2.33;1.85;;;6.90;99.90;;;;;;5045839;28;20053;-87
2021/12/29 08:13:48;;;;;;;1.23;1.15;;;6.90;99.90;;;;;;5050690;28;20097;-89
2021/12/29 08:16:14;;;;;;;1.08;1.00;;;6.90;99.90;;;;;;5059440;28;20049;-89
2021/12/29 08:18:40;;;;;;;1.50;1.40;;;6.90;99.90;;;;;;5044323;28;20099;-87
2021/12/29 08:21:06;;;;;;;0.70;0.70;;;6.90;99.90;;;;;;5041397;28;20608;-86
2021/12/29 08:23:32;;;;;;;0.70;0.70;;;7.00;99.90;;;;;;5046030;28;20040;-87
2021/12/29 08:25:59;;;;;;;0.80;0.80;;;7.00;99.90;;;;;;5062330;28;20055;-88
2021/12/29 08:28:24;;;;;;;0.77;0.77;;;7.00;99.90;;;;;;5042191;28;20489;-88
2021/12/29 08:30:53;;;;;;;0.70;0.70;;;7.00;99.90;;;;;;5046452;28;20067;-87
2021/12/29 08:33:19;;;;;;;1.00;0.90;;;7.00;99.90;;;;;;5051785;28;20079;-88
2021/12/29 08:35:45;;;;;;;0.63;0.63;;;7.00;99.90;;;;;;5049347;28;20033;-89
2021/12/29 08:38:10;;;;;;;1.55;1.02;;;7.00;99.90;;;;;;5044192;28;20037;-86
2021/12/29 08:40:36;;;;;;;1.10;1.00;;;7.00;99.90;;;;;;5050398;28;20040;-89
2021/12/29 08:43:03;;;;;;;0.98;0.90;;;7.00;99.90;;;;;;5046469;28;20124;-88
2021/12/29 08:45:30;;;;;;;1.05;1.05;;;7.00;99.90;;;;;;5043919;28;20075;-88
2021/12/29 08:47:58;;;;;;;0.80;0.80;;;7.00;99.90;;;;;;5072627;28;20037;-88
2021/12/29 08:50:29;;;;;;;0.80;0.80;;;7.00;99.90;;;;;;5060004;28;20044;-87
2021/12/29 08:52:59;;;;;;;1.08;0.98;;;7.00;99.90;;;;;;5043996;28;20119;-87
2021/12/29 08:55:26;;;;;;;0.93;0.93;;;7.10;99.90;;;;;;5067659;28;20041;-88
2021/12/29 08:57:51;;;;;;;1.45;1.35;;;7.10;99.90;;;;;;5054683;28;20063;-89
2021/12/29 09:00:18;;;;;;;1.10;1.10;;;7.10;99.90;;;;;;5045928;28;20077;-87
2021/12/29 09:02:44;;;;;;;0.77;0.77;;;7.10;99.90;;;;;;5048554;28;20045;-88
2021/12/29 09:05:11;;;;;;;0.85;0.85;;;7.10;99.90;;;;;;5044314;28;20091;-86
2021/12/29 09:07:38;;;;;;;0.57;0.57;;;7.10;99.90;;;;;;5056553;28;20052;-88
2021/12/29 09:10:06;;;;;;;0.77;0.77;;;7.10;99.90;;;;;;5043671;28;21140;-87
2021/12/29 09:12:31;;;;;;;0.70;0.70;;;7.20;99.90;;;;;;5044038;28;20052;-87
2021/12/29 09:14:57;;;;;;;0.65;0.65;;;7.20;99.90;;;;;;5045692;28;20041;-86
2021/12/29 09:17:23;;;;;;;1.10;1.02;;;7.20;99.90;;;;;;5043688;28;20063;-85
2021/12/29 09:19:49;;;;;;;0.60;0.60;;;7.20;99.90;;;;;;5047137;28;20111;-88
2021/12/29 09:22:15;;;;;;;0.90;0.88;;;7.20;99.90;;;;;;5057691;28;20382;-87
2021/12/29 09:24:42;;;;;;;0.60;0.60;;;7.20;99.90;;;;;;5061644;28;20386;-87
2021/12/29 09:27:15;;;;;;;1.02;1.00;;;7.20;99.90;;;;;;5052474;28;20047;-87
2021/12/29 09:29:41;;;;;;;1.00;1.00;;;7.30;99.90;;;;;;5042122;28;20045;-87
2021/12/29 09:32:06;;;;;;;0.75;0.75;;;7.30;99.90;;;;;;5037812;28;20392;-87
2021/12/29 09:34:33;;;;;;;1.10;1.00;;;7.30;99.90;;;;;;5037612;28;20049;-87
2021/12/29 09:37:00;;;;;;;0.73;0.73;;;7.30;99.90;;;;;;5036020;28;20405;-86
2021/12/29 09:39:26;;;;;;;0.52;0.52;;;7.40;99.90;;;;;;5036227;28;20033;-87
2021/12/29 09:41:52;;;;;;;0.85;0.85;;;7.40;99.90;;;;;;5046054;28;20124;-87
2021/12/29 09:44:19;;;;;;;1.23;1.13;;;7.40;99.90;;;;;;5052652;28;20033;-88
2021/12/29 09:46:44;;;;;;;0.70;0.70;;;7.40;99.90;;;;;;5036934;28;20056;-88
2021/12/29 09:49:10;;;;;;;0.60;0.60;;;7.40;99.90;;;;;;5039039;28;20041;-88
2021/12/29 09:51:37;;;;;;;0.98;0.98;;;7.40;99.90;;;;;;5051344;28;20051;-88
2021/12/29 09:54:04;;;;;;;0.80;0.80;;;7.40;99.90;;;;;;5050925;28;20741;-88
2021/12/29 09:56:30;;;;;;;1.45;1.35;;;7.50;99.90;;;;;;5050335;28;20072;-88
2021/12/29 09:58:56;;;;;;;1.33;1.23;;;7.50;99.90;;;;;;5053595;28;20052;-88
2021/12/29 10:01:22;;;;;;;2.00;0.88;;;7.50;99.90;;;;;;5052326;28;20041;-87
2021/12/29 10:03:48;;;;;;;0.60;0.60;;;7.50;99.90;;;;;;5035369;28;20037;-88
2021/12/29 10:06:15;;;;;;;0.77;0.77;;;7.60;99.90;;;;;;5047627;28;20037;-89
2021/12/29 10:08:45;;;;;;;1.30;0.70;;;7.60;99.90;;;;;;5033812;28;20090;-88
2021/12/29 10:11:15;;;;;;;0.80;0.80;;;7.60;99.90;;;;;;5049615;28;20091;-88
2021/12/29 10:13:43;;;;;;;0.60;0.60;;;7.60;99.90;;;;;;5034365;28;20070;-88
2021/12/29 10:16:12;;;;;;;0.82;0.82;;;7.60;99.90;;;;;;5032092;28;20037;-87
2021/12/29 10:18:41;;;;;;;0.70;0.70;;;7.60;99.90;;;;;;5035616;28;20055;-87
2021/12/29 10:21:14;;;;;;;0.70;0.70;;;7.70;99.90;;;;;;5032329;28;20489;-86
2021/12/29 10:23:44;;;;;;;0.52;0.52;;;7.70;99.90;;;;;;5048438;28;20041;-86
2021/12/29 10:26:15;;;;;;;1.15;1.05;;;7.70;99.90;;;;;;5052265;28;20764;-87
2021/12/29 10:28:49;;;;;;;1.02;0.93;;;7.80;99.90;;;;;;5047303;28;20137;-87
2021/12/29 10:31:19;;;;;;;0.50;0.50;;;7.80;99.90;;;;;;5049405;28;20131;-86
2021/12/29 10:33:48;;;;;;;0.82;0.82;;;7.80;99.90;;;;;;5032257;28;20541;-89
2021/12/29 10:36:23;;;;;;;0.70;0.70;;;7.80;99.90;;;;;;5050835;28;20102;-86
2021/12/29 10:39:01;;;;;;;0.50;0.50;;;7.80;99.90;;;;;;5050805;28;20057;-86
2021/12/29 10:41:28;;;;;;;0.68;0.68;;;7.80;99.90;;;;;;5035337;28;20720;-88
2021/12/29 10:44:04;;;;;;;0.70;0.70;;;7.70;99.90;;;;;;5055252;28;20053;-86
2021/12/29 10:46:33;;;;;;;0.88;0.88;;;7.90;99.90;;;;;;5052390;28;20055;-86
2021/12/29 10:49:02;;;;;;;0.70;0.70;;;7.80;99.90;;;;;;5044179;28;20034;-87
2021/12/29 10:51:35;;;;;;;0.75;0.75;;;7.90;99.90;;;;;;5050385;28;20061;-87
2021/12/29 10:54:16;;;;;;;1.48;1.38;;;7.90;99.90;;;;;;5048747;28;20489;-87
2021/12/29 10:57:04;;;;;;;0.70;0.70;;;7.90;99.90;;;;;;5034500;28;20056;-86
2021/12/29 10:59:34;;;;;;;0.80;0.80;;;7.90;99.90;;;;;;5035957;28;20053;-86
2021/12/29 11:02:00;;;;;;;0.70;0.70;;;7.90;99.90;;;;;;5042092;28;20573;-86
2021/12/29 11:04:26;;;;;;;0.60;0.60;;;7.90;99.90;;;;;;5048904;28;20040;-87
2021/12/29 11:06:57;;;;;;;0.60;0.60;;;7.90;99.90;;;;;;5052457;28;20045;-87
2021/12/29 11:09:26;;;;;;;0.60;0.60;;;7.80;99.90;;;;;;5033311;28;20097;-86
2021/12/29 11:11:52;;;;;;;0.75;0.75;;;7.80;99.90;;;;;;5034495;28;20363;-87
2021/12/29 11:14:22;;;;;;;0.60;0.60;;;7.80;99.90;;;;;;5050259;28;20565;-85
2021/12/29 11:16:59;;;;;;;1.40;1.30;;;7.80;99.90;;;;;;5044831;28;20049;-87
2021/12/29 11:19:24;;;;;;;0.60;0.60;;;7.80;99.90;;;;;;5045315;28;20041;-86
2021/12/29 11:21:51;;;;;;;0.60;0.60;;;7.80;99.90;;;;;;5064928;28;20075;-86
2021/12/29 11:24:25;;;;;;;0.82;0.82;;;7.80;99.90;;;;;;5040019;28;20532;-86
2021/12/29 11:26:51;;;;;;;0.70;0.70;;;7.80;99.90;;;;;;5044202;28;20057;-86
2021/12/29 11:29:21;;;;;;;0.60;0.60;;;7.70;99.90;;;;;;5034964;28;20041;-86
2021/12/29 11:31:50;;;;;;;0.60;0.60;;;7.80;99.90;;;;;;5039899;28;20051;-86
2021/12/29 11:34:27;;;;;;;0.50;0.50;;;7.80;99.90;;;;;;5051236;28;20122;-88
2021/12/29 11:37:14;;;;;;;0.80;0.80;;;7.70;99.90;;;;;;5032115;28;20087;-87
2021/12/29 11:39:48;;;;;;;0.63;0.63;;;7.80;99.90;;;;;;5041940;28;20041;-87
2021/12/29 11:42:13;;;;;;;;;;;7.80;99.90;;;;;;5050642;28;20055;-87
2021/12/29 11:44:39;;;;;;;0.50;0.50;;;7.80;99.90;;;;;;5053914;28;20024;-86
2021/12/29 11:47:07;;;;;;;0.60;0.60;;;7.90;99.90;;;;;;5040182;28;20036;-87
2021/12/29 11:49:32;;;;;;;0.65;0.65;;;7.90;99.90;;;;;;5058837;28;20057;-87
2021/12/29 11:51:58;;;;;;;0.70;0.70;;;7.90;99.90;;;;;;5042651;28;20048;-87
2021/12/29 11:54:47;;;;;;;0.75;0.75;;;7.90;99.90;;;;;;5043493;28;20573;-87
2021/12/29 11:57:15;;;;;;;0.60;0.60;;;8.00;99.90;;;;;;5075533;28;20041;-87
2021/12/29 11:59:42;;;;;;;1.15;1.05;;;8.10;99.90;;;;;;5058415;28;20109;-88
2021/12/29 12:02:07;;;;;;;4.43;0.88;;;8.10;99.90;;;;;;5040890;28;20049;-86
2021/12/29 12:04:33;;;;;;;0.60;0.60;;;8.10;99.90;;;;;;5044523;28;20064;-87
2021/12/29 12:07:03;;;;;;;0.80;0.80;;;8.10;99.90;;;;;;5043786;28;20061;-87
2021/12/29 12:09:29;;;;;;;0.60;0.60;;;8.20;99.90;;;;;;5043028;28;20029;-86
2021/12/29 12:11:56;;;;;;;0.50;0.50;;;8.20;99.90;;;;;;5061004;28;20506;-87
2021/12/29 12:14:25;;;;;;;0.60;0.60;;;8.20;99.90;;;;;;5063373;28;20041;-86
2021/12/29 12:17:15;;;;;;;0.63;0.63;;;8.30;99.90;;;;;;5056475;28;20037;-87
2021/12/29 12:19:45;;;;;;;0.70;0.70;;;8.30;99.90;;;;;;5042228;28;20096;-88
2021/12/29 12:22:16;;;;;;;0.60;0.60;;;8.30;99.90;;;;;;5059025;28;20071;-88
2021/12/29 12:24:59;;;;;;;0.60;0.60;;;8.30;99.90;;;;;;5044605;28;20037;-88
2021/12/29 12:27:32;;;;;;;0.60;0.60;;;8.30;99.90;;;;;;5059000;28;20092;-86
2021/12/29 12:30:04;;;;;;;0.60;0.60;;;8.30;99.90;;;;;;5061384;28;20037;-87
2021/12/29 12:32:40;;;;;;;0.60;0.60;;;8.30;99.90;;;;;;5055651;28;20049;-87
2021/12/29 12:35:06;;;;;;;0.70;0.70;;;8.30;99.90;;;;;;5053712;28;20687;-84
2021/12/29 12:37:34;;;;;;;0.50;0.50;;;8.30;99.90;;;;;;5056603;28;20072;-84
2021/12/29 12:40:29;;;;;;;0.50;0.50;;;8.30;99.90;;;;;;5076416;28;20044;-86
2021/12/29 12:43:10;;;;;;;0.70;0.70;;;8.30;99.90;;;;;;5040996;28;20074;-84
2021/12/29 12:45:39;;;;;;;0.68;0.68;;;8.30;99.90;;;;;;5040426;28;20061;-85
2021/12/29 12:48:19;;;;;;;0.60;0.60;;;8.30;99.90;;;;;;5057621;28;20045;-85
2021/12/29 12:50:45;;;;;;;0.60;0.60;;;8.20;99.90;;;;;;5055038;28;20052;-86
2021/12/29 12:53:12;;;;;;;1.02;1.00;;;8.20;99.90;;;;;;5043135;28;20462;-85
2021/12/29 12:55:56;;;;;;;0.57;0.57;;;8.30;99.90;;;;;;5057982;28;20167;-86
2021/12/29 12:58:23;;;;;;;0.60;0.60;;;8.20;99.90;;;;;;5056722;28;20094;-86
2021/12/29 13:00:59;;;;;;;0.60;0.60;;;8.20;99.90;;;;;;5056714;28;20076;-85
2021/12/29 13:03:25;;;;;;;0.70;0.70;;;8.20;99.90;;;;;;5041972;28;20041;-85
2021/12/29 13:05:57;;;;;;;0.50;0.50;;;8.20;99.90;;;;;;5058547;28;20048;-85